TimeCST,TemperatureF,Dew PointF,Humidity,Sea Level PressureIn,VisibilityMPH,Wind Direction,Wind SpeedMPH,Gust SpeedMPH,PrecipitationIn,Events,Conditions,WindDirDegrees,DateUTC
12:53 AM,18.0,12.0,78,30.21,10.0,Calm,Calm,-,N/A,,Clear,0,2013-01-23 06:53:00
1:53 AM,17.1,12.0,81,30.20,10.0,Calm,Calm,-,N/A,,Clear,0,2013-01-23 07:53:00
2:53 AM,12.9,8.1,81,30.20,10.0,Calm,Calm,-,N/A,,Clear,0,2013-01-23 08:53:00
3:53 AM,12.9,9.0,84,30.20,10.0,Calm,Calm,-,N/A,,Clear,0,2013-01-23 09:53:00
4:53 AM,10.9,7.0,84,30.19,10.0,Calm,Calm,-,N/A,,Clear,0,2013-01-23 10:53:00
5:53 AM,10.0,7.0,87,30.21,10.0,Calm,Calm,-,N/A,,Clear,0,2013-01-23 11:53:00
6:53 AM,9.0,5.0,84,30.24,10.0,Calm,Calm,-,N/A,,Clear,0,2013-01-23 12:53:00
7:53 AM,21.0,16.0,81,30.23,10.0,North,5.8,-,N/A,,Clear,350,2013-01-23 13:53:00
8:53 AM,24.1,17.1,75,30.25,10.0,Calm,Calm,-,N/A,,Clear,0,2013-01-23 14:53:00
9:53 AM,26.1,17.1,69,30.28,10.0,NNE,9.2,-,N/A,,Clear,20,2013-01-23 15:53:00
10:53 AM,28.9,18.0,64,30.30,10.0,NNE,10.4,-,N/A,,Clear,20,2013-01-23 16:53:00
11:53 AM,30.9,17.1,57,30.31,10.0,NNE,11.5,19.6,N/A,,Clear,30,2013-01-23 17:53:00
12:53 PM,32.0,17.1,54,30.31,10.0,NNE,12.7,20.7,N/A,,Clear,20,2013-01-23 18:53:00
1:53 PM,30.9,16.0,54,30.31,10.0,North,15.0,-,N/A,,Clear,10,2013-01-23 19:53:00
2:53 PM,30.0,14.0,51,30.35,10.0,North,13.8,-,N/A,,Clear,10,2013-01-23 20:53:00
3:53 PM,28.0,12.0,51,30.36,10.0,NNE,10.4,-,N/A,,Clear,20,2013-01-23 21:53:00
4:53 PM,26.1,10.0,51,30.38,10.0,NNE,12.7,-,N/A,,Clear,30,2013-01-23 22:53:00
5:53 PM,21.9,9.0,58,30.42,10.0,NNE,10.4,-,N/A,,Clear,30,2013-01-23 23:53:00
6:53 PM,19.9,8.1,60,30.45,10.0,NE,9.2,-,N/A,,Clear,40,2013-01-24 00:53:00
7:53 PM,18.0,8.1,65,30.46,10.0,NNE,6.9,-,N/A,,Clear,30,2013-01-24 01:53:00
8:53 PM,17.1,7.0,65,30.47,10.0,NE,9.2,-,N/A,,Clear,40,2013-01-24 02:53:00
9:53 PM,14.0,7.0,74,30.47,10.0,ENE,9.2,-,N/A,,Clear,60,2013-01-24 03:53:00
10:53 PM,12.0,5.0,73,30.49,10.0,ENE,3.5,-,N/A,,Clear,60,2013-01-24 04:53:00
11:53 PM,9.0,3.9,80,30.51,10.0,East,3.5,-,N/A,,Clear,80,2013-01-24 05:53:00